Juneau, Alaska
Current Conditions -  °F | °C
As of 12:53 PM on Friday 31 Oct 2014 (Local Time) from PAJN Reporting Station
Light Rain Light Rain  
Wind Chill: 34°   Ceiling: 4900
Heat Index: 42°   Visibility: 7mi
Dew Point: 38°   Wind: 17mph
Humidity: 85%   Direction: 110°ESE
Pressure: 29.52"   Gusts: NA
Location:  58.37°N, 134.57°W
Report Text: PAJN 312053Z 11015KT 7SM -RA SCT029 BKN049 OVC060 06/03 A2952 RMK AO2 PK WND 11026/2005 SLP996 P0001 60005 T00560033 58003
Loading
Personal Weather Stations






























Interactive Weather Map
Tropical Storm Tracking
New forecast layout! Learn more

10-Day Weather Forecast

Advertisements
Track Severe Weather on mobile